Time;durP1;ratioP1;P1;durP2;ratioP2;P2;SDS_P1;SDS_P2;PMS_P1;PMS_P2;Temp;Humidity;BMP_temperature;BMP_pressure;BME280_temperature;BME280_humidity;BME280_pressure;Samples;Min_cycle;Max_cycle;Signal;HPM_P1;HPM_P2
2022/01/01 00:02:02;;;;;;;1824.45;584.22;;;;;;;;;;5017230;28;20401;-81
2022/01/01 00:04:28;;;;;;;1880.90;783.95;;;;;;;;;;5034016;28;20475;-81
2022/01/01 00:06:53;;;;;;;1999.90;999.90;;;;;;;;;;5030432;28;20386;-82
2022/01/01 00:09:18;;;;;;;1999.90;999.90;;;;;;;;;;5062101;28;20106;-81
2022/01/01 00:11:44;;;;;;;1858.80;797.03;;;;;;;;;;5033597;28;20400;-81
2022/01/01 00:14:09;;;;;;;1999.90;999.90;;;;;;;;;;5008476;28;20029;-81
2022/01/01 00:16:35;;;;;;;1750.75;777.35;;;;;;;;;;5017095;28;20271;-81
2022/01/01 00:19:00;;;;;;;1769.80;774.67;;;;;;;;;;5007398;28;20465;-81
2022/01/01 00:21:26;;;;;;;1999.90;999.90;;;;;;;;;;5042854;28;20052;-81
2022/01/01 00:23:51;;;;;;;1870.82;783.08;;;;;;;;;;5020884;28;20033;-81
2022/01/01 00:26:17;;;;;;;1795.32;778.70;;;;;;;;;;5033684;28;20075;-81
2022/01/01 00:28:42;;;;;;;1952.85;444.15;;;;;;;;;;5032664;28;20029;-81
2022/01/01 00:31:08;;;;;;;1999.90;439.35;;;;;;;;;;5016720;28;20025;-81
2022/01/01 00:33:33;;;;;;;1848.63;793.40;;;;;;;;;;5019704;28;20143;-81
2022/01/01 00:35:59;;;;;;;1999.90;999.90;;;;;;;;;;5037091;28;20107;-81
2022/01/01 00:38:24;;;;;;;705.30;58.10;;;;;;;;;;5020669;28;20080;-81
2022/01/01 00:40:50;;;;;;;1999.90;999.90;;;;;;;;;;5007676;28;20444;-81
2022/01/01 00:43:16;;;;;;;1999.90;999.90;;;;;;;;;;5017215;28;20403;-80
2022/01/01 00:45:41;;;;;;;1847.28;778.78;;;;;;;;;;5000512;28;20036;-81
2022/01/01 00:48:06;;;;;;;1450.57;538.95;;;;;;;;;;5033666;28;20056;-81
2022/01/01 00:50:32;;;;;;;1999.90;999.90;;;;;;;;;;5000283;28;20017;-81
2022/01/01 00:53:01;;;;;;;1999.90;999.90;;;;;;;;;;5022580;28;20441;-80
2022/01/01 00:55:26;;;;;;;1999.90;999.90;;;;;;;;;;5024282;28;20509;-81
2022/01/01 00:57:51;;;;;;;1769.53;787.40;;;;;;;;;;5040403;28;20032;-81
2022/01/01 01:00:17;;;;;;;1999.90;999.90;;;;;;;;;;5024039;28;20046;-81
2022/01/01 01:02:42;;;;;;;1711.90;768.30;;;;;;;;;;5040685;28;20036;-81
2022/01/01 01:05:08;;;;;;;1999.90;999.90;;;;;;;;;;5023698;28;20410;-81
2022/01/01 01:07:33;;;;;;;1641.75;559.58;;;;;;;;;;5017586;28;20118;-81
2022/01/01 01:09:59;;;;;;;1827.63;596.67;;;;;;;;;;5006876;28;20088;-81
2022/01/01 01:12:32;;;;;;;1102.95;112.03;;;;;;;;;;5020024;28;20446;-81
2022/01/01 01:14:57;;;;;;;1999.90;999.90;;;;;;;;;;5006227;28;20071;-81
2022/01/01 01:17:23;;;;;;;1863.28;606.78;;;;;;;;;;5020336;28;20119;-81
2022/01/01 01:19:48;;;;;;;1999.90;999.90;;;;;;;;;;5003794;28;20048;-82
2022/01/01 01:22:14;;;;;;;1999.90;999.90;;;;;;;;;;5004013;28;20063;-80
2022/01/01 01:24:39;;;;;;;1999.90;999.90;;;;;;;;;;5020239;28;20390;-81
2022/01/01 01:27:06;;;;;;;1374.57;532.17;;;;;;;;;;5026241;28;20390;-81
2022/01/01 01:29:33;;;;;;;1999.90;999.90;;;;;;;;;;5020577;28;20151;-81
2022/01/01 01:31:58;;;;;;;1999.90;999.90;;;;;;;;;;5025353;28;20040;-81
2022/01/01 01:34:24;;;;;;;1999.90;999.90;;;;;;;;;;5030245;28;20039;-81
2022/01/01 01:36:49;;;;;;;1280.00;538.53;;;;;;;;;;5040004;28;20075;-81
2022/01/01 01:39:15;;;;;;;1643.75;585.83;;;;;;;;;;5023256;28;20074;-81
2022/01/01 01:41:43;;;;;;;1717.45;769.17;;;;;;;;;;5039840;28;20036;-81
2022/01/01 01:44:30;;;;;;;1597.35;558.92;;;;;;;;;;5024106;28;20560;-81
2022/01/01 01:46:56;;;;;;;1657.90;428.35;;;;;;;;;;5035605;28;20033;-81
2022/01/01 01:49:21;;;;;;;1999.90;999.90;;;;;;;;;;5003417;28;20078;-80
2022/01/01 01:51:47;;;;;;;1856.88;781.78;;;;;;;;;;5019731;28;20037;-81
2022/01/01 01:54:16;;;;;;;1999.90;999.90;;;;;;;;;;5049908;28;20033;-81
2022/01/01 01:56:43;;;;;;;1084.05;125.80;;;;;;;;;;5014595;28;20032;-81
2022/01/01 01:59:10;;;;;;;1231.60;359.30;;;;;;;;;;5039559;28;20025;-81
2022/01/01 02:01:35;;;;;;;1999.90;999.90;;;;;;;;;;5009462;28;20032;-81
2022/01/01 02:04:01;;;;;;;1999.90;999.90;;;;;;;;;;5019155;28;20375;-81
2022/01/01 02:06:26;;;;;;;1903.03;803.85;;;;;;;;;;5003274;28;20025;-81
2022/01/01 02:08:52;;;;;;;1999.90;999.90;;;;;;;;;;5003079;28;20052;-81
2022/01/01 02:11:19;;;;;;;1947.53;807.67;;;;;;;;;;5038831;28;20036;-81
2022/01/01 02:18:53;;;;;;;1784.50;785.55;;;;;;;;;;5039873;28;20024;-81
2022/01/01 02:21:20;;;;;;;1999.90;999.90;;;;;;;;;;5022347;28;20055;-81
2022/01/01 02:23:46;;;;;;;1999.90;999.90;;;;;;;;;;5022573;28;20830;-81
2022/01/01 02:26:15;;;;;;;1299.95;525.42;;;;;;;;;;5016939;28;20028;-80
2022/01/01 02:28:44;;;;;;;1523.28;374.85;;;;;;;;;;5036209;28;20029;-81
2022/01/01 02:31:09;;;;;;;1999.90;999.90;;;;;;;;;;5021657;28;20025;-81
2022/01/01 02:33:36;;;;;;;1762.95;771.85;;;;;;;;;;5021944;28;20036;-81
2022/01/01 02:36:02;;;;;;;1114.65;100.13;;;;;;;;;;5022203;28;20031;-81
2022/01/01 02:38:27;;;;;;;1999.90;999.90;;;;;;;;;;5022052;28;20033;-81
2022/01/01 02:40:53;;;;;;;1999.90;999.90;;;;;;;;;;5018326;28;20080;-81
2022/01/01 02:43:19;;;;;;;1999.90;999.90;;;;;;;;;;5016819;28;20033;-81
2022/01/01 02:45:44;;;;;;;1637.57;762.55;;;;;;;;;;5035098;28;20128;-81
2022/01/01 02:48:12;;;;;;;1999.90;999.90;;;;;;;;;;5002469;28;20120;-81
2022/01/01 02:50:38;;;;;;;1413.88;539.45;;;;;;;;;;5034686;28;20557;-81
2022/01/01 02:53:14;;;;;;;1529.80;379.17;;;;;;;;;;5034650;28;20028;-81
2022/01/01 02:55:40;;;;;;;1705.82;771.25;;;;;;;;;;5030811;28;20032;-80
2022/01/01 02:58:05;;;;;;;1999.90;999.90;;;;;;;;;;5038862;28;20059;-81
2022/01/01 03:00:31;;;;;;;1661.15;585.13;;;;;;;;;;5021762;28;20402;-80
2022/01/01 03:02:57;;;;;;;1999.90;999.90;;;;;;;;;;5021851;28;20028;-81
2022/01/01 03:05:22;;;;;;;1125.43;177.73;;;;;;;;;;5054827;28;20095;-81
2022/01/01 03:07:48;;;;;;;848.15;281.52;;;;;;;;;;5021580;28;20029;-81
2022/01/01 03:10:13;;;;;;;1999.90;999.90;;;;;;;;;;5010976;28;20044;-81
2022/01/01 03:12:39;;;;;;;620.95;50.97;;;;;;;;;;5018189;28;20099;-81
2022/01/01 03:15:05;;;;;;;1999.90;999.90;;;;;;;;;;5001416;28;20021;-81
2022/01/01 03:17:30;;;;;;;1286.28;522.50;;;;;;;;;;5026743;28;20044;-81
2022/01/01 03:19:55;;;;;;;1728.60;574.38;;;;;;;;;;5034215;28;20025;-81
2022/01/01 03:22:21;;;;;;;1999.90;999.90;;;;;;;;;;5018023;28;20086;-81
2022/01/01 03:24:46;;;;;;;1999.90;999.90;;;;;;;;;;5017961;28;20033;-81
2022/01/01 03:27:12;;;;;;;1999.90;999.90;;;;;;;;;;5030960;28;20062;-82
2022/01/01 03:29:38;;;;;;;1569.30;172.50;;;;;;;;;;5021493;28;20375;-81
2022/01/01 03:32:04;;;;;;;1999.90;999.90;;;;;;;;;;5037676;28;20047;-81
2022/01/01 03:34:29;;;;;;;1825.47;430.67;;;;;;;;;;5017615;28;20104;-81
2022/01/01 03:36:55;;;;;;;1999.90;999.90;;;;;;;;;;5017720;28;20617;-81
2022/01/01 03:39:22;;;;;;;1228.40;325.30;;;;;;;;;;5067228;28;20098;-81
2022/01/01 03:41:47;;;;;;;1476.72;547.42;;;;;;;;;;5050900;28;20025;-81
2022/01/01 03:44:13;;;;;;;1799.03;597.42;;;;;;;;;;5018182;28;20360;-81
2022/01/01 03:46:39;;;;;;;1999.90;999.90;;;;;;;;;;5067324;28;20059;-81
2022/01/01 03:49:05;;;;;;;1999.90;999.90;;;;;;;;;;5053408;28;20082;-81
2022/01/01 03:51:30;;;;;;;1999.90;999.90;;;;;;;;;;5020204;28;20099;-80
2022/01/01 03:53:56;;;;;;;1999.90;999.90;;;;;;;;;;5034191;28;20056;-81
2022/01/01 03:56:21;;;;;;;905.28;86.85;;;;;;;;;;5050657;28;20124;-81
2022/01/01 03:58:47;;;;;;;1999.90;999.90;;;;;;;;;;5050565;28;20379;-81
2022/01/01 04:01:12;;;;;;;1627.55;566.50;;;;;;;;;;5033721;28;20068;-81
2022/01/01 04:03:38;;;;;;;1999.90;999.90;;;;;;;;;;5050298;28;20037;-81
2022/01/01 04:06:04;;;;;;;1999.90;999.90;;;;;;;;;;5033761;28;20475;-81
2022/01/01 04:08:30;;;;;;;1999.90;999.90;;;;;;;;;;5033909;28;20037;-80
2022/01/01 04:10:56;;;;;;;666.70;60.70;;;;;;;;;;5017340;28;20434;-81
2022/01/01 04:13:21;;;;;;;1999.90;999.90;;;;;;;;;;5033789;28;20079;-80
2022/01/01 04:15:47;;;;;;;1999.90;999.90;;;;;;;;;;5033389;28;20415;-81
2022/01/01 04:18:18;;;;;;;1999.90;999.90;;;;;;;;;;5034041;28;20079;-81
2022/01/01 04:20:45;;;;;;;1999.90;999.90;;;;;;;;;;5033926;28;20085;-80
2022/01/01 04:23:10;;;;;;;1733.88;581.70;;;;;;;;;;5050765;28;20103;-81
2022/01/01 04:25:36;;;;;;;729.22;65.93;;;;;;;;;;5050310;28;20392;-81
2022/01/01 04:28:01;;;;;;;1705.30;774.80;;;;;;;;;;5020745;28;20063;-80
2022/01/01 04:30:29;;;;;;;1741.40;781.90;;;;;;;;;;5021362;28;20032;-80
2022/01/01 04:32:57;;;;;;;1999.90;999.90;;;;;;;;;;5021751;28;20040;-81
2022/01/01 04:35:23;;;;;;;1638.95;763.03;;;;;;;;;;5018538;28;20116;-81
2022/01/01 04:37:48;;;;;;;1999.90;999.90;;;;;;;;;;5037692;28;20459;-80
2022/01/01 04:40:14;;;;;;;1999.90;999.90;;;;;;;;;;5021119;28;20091;-81
2022/01/01 04:42:39;;;;;;;1452.95;548.28;;;;;;;;;;5022708;28;20052;-80
2022/01/01 04:45:05;;;;;;;1999.90;999.90;;;;;;;;;;5040971;28;20048;-81
2022/01/01 04:47:31;;;;;;;1999.90;999.90;;;;;;;;;;5024286;28;20024;-81
2022/01/01 04:49:56;;;;;;;1649.47;770.72;;;;;;;;;;5023566;28;20036;-80
2022/01/01 04:52:21;;;;;;;1661.22;769.13;;;;;;;;;;5024272;28;20056;-80
2022/01/01 04:54:47;;;;;;;1038.63;290.05;;;;;;;;;;5040592;28;20040;-81
2022/01/01 04:57:12;;;;;;;1999.90;999.90;;;;;;;;;;5024280;28;20059;-80
2022/01/01 04:59:39;;;;;;;1593.22;557.25;;;;;;;;;;5040816;28;20107;-80
2022/01/01 05:02:04;;;;;;;1999.90;999.90;;;;;;;;;;5040378;28;20032;-81
2022/01/01 05:04:30;;;;;;;1999.90;999.90;;;;;;;;;;5035564;28;20416;-80
2022/01/01 05:06:55;;;;;;;1999.90;999.90;;;;;;;;;;5020135;28;20082;-80
2022/01/01 05:09:21;;;;;;;1999.90;999.90;;;;;;;;;;5036954;28;20029;-80
2022/01/01 05:11:46;;;;;;;1999.90;999.90;;;;;;;;;;5020599;28;20506;-81
2022/01/01 05:14:12;;;;;;;1999.90;999.90;;;;;;;;;;5020633;28;20032;-81
2022/01/01 05:16:38;;;;;;;1390.90;535.47;;;;;;;;;;5019751;28;20475;-82
2022/01/01 05:19:04;;;;;;;1999.90;999.90;;;;;;;;;;5053022;28;20032;-80
2022/01/01 05:21:32;;;;;;;1999.90;999.90;;;;;;;;;;5019813;28;20112;-81
2022/01/01 05:24:01;;;;;;;1099.05;508.23;;;;;;;;;;5048309;28;20029;-81
2022/01/01 05:26:26;;;;;;;1999.90;999.90;;;;;;;;;;5024040;28;20087;-80
2022/01/01 05:28:52;;;;;;;1999.90;999.90;;;;;;;;;;5040318;28;20056;-81
2022/01/01 05:31:19;;;;;;;1999.90;999.90;;;;;;;;;;5023338;28;20024;-80
2022/01/01 05:33:45;;;;;;;1999.90;999.90;;;;;;;;;;5020013;28;20437;-81
2022/01/01 05:36:10;;;;;;;1343.68;541.00;;;;;;;;;;5003739;28;20037;-81
2022/01/01 05:38:36;;;;;;;1999.90;999.90;;;;;;;;;;5053072;28;20494;-80
2022/01/01 05:41:01;;;;;;;1999.90;999.90;;;;;;;;;;5037163;28;20528;-81
2022/01/01 05:43:27;;;;;;;964.83;90.97;;;;;;;;;;5036484;28;20033;-80
2022/01/01 05:45:52;;;;;;;1999.90;999.90;;;;;;;;;;5003290;28;20040;-81
2022/01/01 05:48:18;;;;;;;1591.40;582.50;;;;;;;;;;5003337;28;20387;-81
2022/01/01 05:50:43;;;;;;;1999.90;999.90;;;;;;;;;;5037142;28;20102;-80
2022/01/01 05:53:10;;;;;;;911.20;87.28;;;;;;;;;;5036100;28;20036;-81
2022/01/01 05:55:35;;;;;;;1999.90;999.90;;;;;;;;;;5052709;28;20060;-81
2022/01/01 05:58:01;;;;;;;1999.90;999.90;;;;;;;;;;5052859;28;20060;-80
2022/01/01 06:00:26;;;;;;;1663.45;573.83;;;;;;;;;;5052600;28;20383;-81
2022/01/01 06:02:51;;;;;;;1484.68;560.58;;;;;;;;;;5052354;28;20084;-81
2022/01/01 06:05:17;;;;;;;1999.90;999.90;;;;;;;;;;5019333;28;20044;-80
2022/01/01 06:07:43;;;;;;;995.90;300.95;;;;;;;;;;5036135;28;20033;-80
2022/01/01 06:10:08;;;;;;;1999.90;999.90;;;;;;;;;;5052237;28;20103;-81
2022/01/01 06:12:37;;;;;;;1250.57;354.92;;;;;;;;;;5035778;28;20099;-81
2022/01/01 06:15:03;;;;;;;1692.80;622.17;;;;;;;;;;5026195;28;20033;-81
2022/01/01 06:17:29;;;;;;;1999.90;999.90;;;;;;;;;;5002577;28;20024;-80
2022/01/01 06:19:54;;;;;;;1801.28;785.50;;;;;;;;;;5018738;28;20086;-80
2022/01/01 06:22:19;;;;;;;1444.78;548.00;;;;;;;;;;5019722;28;20060;-81
2022/01/01 06:24:45;;;;;;;1214.80;520.78;;;;;;;;;;5019397;28;20043;-81
2022/01/01 06:27:12;;;;;;;1082.70;312.23;;;;;;;;;;5028529;28;20025;-81
2022/01/01 06:29:38;;;;;;;1149.93;145.93;;;;;;;;;;5019296;28;20025;-81
2022/01/01 06:32:03;;;;;;;1999.90;999.90;;;;;;;;;;5018653;28;20029;-81
2022/01/01 06:34:29;;;;;;;1999.90;999.90;;;;;;;;;;5009173;28;20398;-81
2022/01/01 06:36:54;;;;;;;1999.90;999.90;;;;;;;;;;5018902;28;20091;-80
2022/01/01 06:39:19;;;;;;;1999.90;999.90;;;;;;;;;;5023724;28;20395;-81
2022/01/01 06:41:45;;;;;;;1999.90;999.90;;;;;;;;;;5038443;28;20379;-81
2022/01/01 06:44:10;;;;;;;1999.90;999.90;;;;;;;;;;5038343;28;20036;-80
2022/01/01 06:46:36;;;;;;;1712.68;770.30;;;;;;;;;;5038380;28;20390;-80
2022/01/01 06:49:01;;;;;;;1999.90;999.90;;;;;;;;;;5021823;28;20036;-80
2022/01/01 06:51:27;;;;;;;1999.90;999.90;;;;;;;;;;5053670;28;20028;-81
2022/01/01 06:53:52;;;;;;;1760.93;774.33;;;;;;;;;;5034820;28;20095;-81
2022/01/01 06:56:18;;;;;;;1999.90;999.90;;;;;;;;;;5051591;28;20131;-81
2022/01/01 06:58:44;;;;;;;1619.03;399.20;;;;;;;;;;5034651;28;20035;-81
2022/01/01 07:01:10;;;;;;;1999.90;999.90;;;;;;;;;;5018432;28;20017;-80
2022/01/01 07:03:36;;;;;;;1188.28;515.97;;;;;;;;;;5021226;28;20117;-81
2022/01/01 07:06:01;;;;;;;985.17;297.33;;;;;;;;;;5034344;28;20044;-80
2022/01/01 07:08:27;;;;;;;1999.90;999.90;;;;;;;;;;5051339;28;20029;-81
2022/01/01 07:10:52;;;;;;;1999.90;999.90;;;;;;;;;;5034561;28;20127;-81
2022/01/01 07:13:18;;;;;;;723.90;90.03;;;;;;;;;;5022435;28;20495;-81
2022/01/01 07:15:43;;;;;;;1999.90;999.90;;;;;;;;;;5051024;28;20059;-82
2022/01/01 07:18:09;;;;;;;1073.10;505.85;;;;;;;;;;5017910;28;20087;-80
2022/01/01 07:20:34;;;;;;;1761.57;778.63;;;;;;;;;;5017845;28;20021;-80
2022/01/01 07:23:00;;;;;;;1495.88;554.53;;;;;;;;;;5018024;28;20024;-81
2022/01/01 07:25:25;;;;;;;1999.90;999.90;;;;;;;;;;5018095;28;20025;-81
2022/01/01 07:27:51;;;;;;;1999.90;999.90;;;;;;;;;;5017407;28;20090;-80
2022/01/01 07:30:16;;;;;;;1999.90;999.90;;;;;;;;;;5034344;28;20040;-81
2022/01/01 07:32:45;;;;;;;1999.90;999.90;;;;;;;;;;5017584;28;20375;-81
2022/01/01 07:35:12;;;;;;;1999.90;999.90;;;;;;;;;;5030650;28;20061;-81
2022/01/01 07:37:38;;;;;;;1999.90;999.90;;;;;;;;;;5017900;28;20544;-81
2022/01/01 07:40:05;;;;;;;1999.90;999.90;;;;;;;;;;5017056;28;20113;-80
2022/01/01 07:42:31;;;;;;;1999.90;999.90;;;;;;;;;;5017719;28;20028;-81
2022/01/01 07:44:57;;;;;;;421.15;33.65;;;;;;;;;;5017869;28;20053;-80
2022/01/01 07:47:22;;;;;;;1999.90;999.90;;;;;;;;;;5037111;28;20021;-80
2022/01/01 07:49:47;;;;;;;1999.90;999.90;;;;;;;;;;5012647;28;20531;-81
2022/01/01 07:52:13;;;;;;;1999.90;999.90;;;;;;;;;;5028181;28;20029;-82
2022/01/01 07:54:38;;;;;;;1214.68;127.00;;;;;;;;;;5019507;28;20416;-80
2022/01/01 07:57:04;;;;;;;1227.78;518.45;;;;;;;;;;5044373;28;20371;-81
2022/01/01 07:59:29;;;;;;;1665.85;764.20;;;;;;;;;;5033724;28;20033;-81
2022/01/01 08:01:55;;;;;;;1999.90;999.90;;;;;;;;;;5016845;28;20029;-80
2022/01/01 08:04:20;;;;;;;1999.90;999.90;;;;;;;;;;5025010;28;20749;-82
2022/01/01 08:06:46;;;;;;;1740.07;628.50;;;;;;;;;;5045570;28;20402;-82
2022/01/01 08:09:13;;;;;;;1999.90;999.90;;;;;;;;;;5018747;28;20394;-80
2022/01/01 08:11:40;;;;;;;1456.30;154.25;;;;;;;;;;5021454;28;20123;-83
2022/01/01 08:14:05;;;;;;;1999.90;735.22;;;;;;;;;;5037283;28;20034;-81
2022/01/01 08:16:31;;;;;;;1934.65;821.55;;;;;;;;;;5033312;28;20037;-81
2022/01/01 08:18:56;;;;;;;1999.90;677.22;;;;;;;;;;5017355;28;20032;-81
2022/01/01 08:21:22;;;;;;;1999.90;999.90;;;;;;;;;;5009105;28;20029;-81
2022/01/01 08:23:47;;;;;;;1325.60;184.45;;;;;;;;;;5036449;28;20263;-81
2022/01/01 08:26:13;;;;;;;1150.22;175.25;;;;;;;;;;5027628;28;20032;-80
2022/01/01 08:28:38;;;;;;;1154.15;170.88;;;;;;;;;;5022084;28;20666;-81
2022/01/01 08:31:04;;;;;;;1999.90;999.90;;;;;;;;;;5015606;28;20391;-81
2022/01/01 08:33:30;;;;;;;1904.82;274.60;;;;;;;;;;5010329;28;20035;-79
2022/01/01 08:35:55;;;;;;;1999.90;999.90;;;;;;;;;;5048296;28;20037;-79
2022/01/01 08:38:21;;;;;;;1948.40;296.08;;;;;;;;;;5030234;28;20037;-79
2022/01/01 08:40:46;;;;;;;1999.90;858.92;;;;;;;;;;5032012;28;20430;-82
2022/01/01 08:43:11;;;;;;;1999.90;431.38;;;;;;;;;;5030425;28;20040;-80
2022/01/01 08:45:37;;;;;;;1688.70;259.10;;;;;;;;;;5031388;28;20041;-81
2022/01/01 08:48:04;;;;;;;1999.90;999.90;;;;;;;;;;5040268;28;20041;-81
2022/01/01 08:50:30;;;;;;;1824.38;812.15;;;;;;;;;;5037795;28;20041;-80
2022/01/01 08:52:57;;;;;;;1959.35;836.70;;;;;;;;;;5042305;28;20039;-83
2022/01/01 08:55:23;;;;;;;1999.90;537.67;;;;;;;;;;5027510;28;20028;-79
2022/01/01 08:57:48;;;;;;;1999.90;759.75;;;;;;;;;;5040738;28;20060;-79
2022/01/01 09:00:14;;;;;;;1999.90;999.90;;;;;;;;;;5051542;28;20029;-79
2022/01/01 09:02:39;;;;;;;1999.90;526.00;;;;;;;;;;5035022;28;20033;-79
2022/01/01 09:05:05;;;;;;;1999.90;534.47;;;;;;;;;;5020807;28;20033;-79
2022/01/01 09:07:30;;;;;;;1999.90;503.98;;;;;;;;;;5032308;28;20036;-79
2022/01/01 09:09:56;;;;;;;1999.90;583.65;;;;;;;;;;5034705;28;20041;-79
2022/01/01 09:12:22;;;;;;;1991.70;456.67;;;;;;;;;;5027600;28;20490;-79
2022/01/01 09:14:47;;;;;;;1999.90;614.90;;;;;;;;;;5037390;28;20113;-79
2022/01/01 09:17:13;;;;;;;1999.90;542.47;;;;;;;;;;5017336;28;20032;-79
2022/01/01 09:19:38;;;;;;;1999.90;507.95;;;;;;;;;;5038345;28;20032;-80
2022/01/01 09:22:03;;;;;;;1634.93;584.20;;;;;;;;;;5030186;28;20091;-80
2022/01/01 09:24:30;;;;;;;1999.90;346.38;;;;;;;;;;5036747;28;20418;-79
2022/01/01 09:26:55;;;;;;;1999.90;999.90;;;;;;;;;;5028731;28;20071;-80
2022/01/01 09:29:21;;;;;;;1983.10;332.70;;;;;;;;;;5056490;28;20040;-79
2022/01/01 09:31:46;;;;;;;1999.90;704.38;;;;;;;;;;5034752;28;20490;-79
2022/01/01 09:34:12;;;;;;;1973.07;309.17;;;;;;;;;;5035489;28;20037;-79
2022/01/01 09:36:37;;;;;;;1999.90;337.42;;;;;;;;;;5052601;28;20033;-79
2022/01/01 09:39:04;;;;;;;1953.28;223.10;;;;;;;;;;5068579;28;20037;-79
2022/01/01 09:41:29;;;;;;;1987.40;739.63;;;;;;;;;;5038371;28;20090;-80
2022/01/01 09:43:56;;;;;;;1992.72;412.88;;;;;;;;;;5023143;28;20418;-79
2022/01/01 09:46:21;;;;;;;1999.90;411.30;;;;;;;;;;5041570;28;20025;-79
2022/01/01 09:48:47;;;;;;;1999.90;647.92;;;;;;;;;;5039797;28;20029;-79
2022/01/01 09:51:13;;;;;;;1408.60;282.63;;;;;;;;;;5052931;28;20025;-79
2022/01/01 09:53:40;;;;;;;1999.90;422.10;;;;;;;;;;5028751;28;20414;-79
2022/01/01 09:56:06;;;;;;;1786.18;290.85;;;;;;;;;;5038339;28;20025;-79
2022/01/01 09:58:33;;;;;;;1996.47;445.65;;;;;;;;;;5063019;28;20376;-79
2022/01/01 10:00:59;;;;;;;1891.10;465.70;;;;;;;;;;5036202;28;20045;-79
2022/01/01 10:03:41;;;;;;;1711.65;211.82;;;;;;;;;;5034324;28;20063;-79
2022/01/01 10:06:08;;;;;;;1999.90;703.47;;;;;;;;;;5040511;28;20045;-85
2022/01/01 10:08:36;;;;;;;1999.90;737.63;;;;;;;;;;5035766;28;20036;-80
2022/01/01 10:11:01;;;;;;;1999.90;767.42;;;;;;;;;;5002505;28;20376;-80
2022/01/01 10:13:28;;;;;;;1999.90;478.67;;;;;;;;;;5031861;28;20040;-81
2022/01/01 10:15:55;;;;;;;1999.90;745.28;;;;;;;;;;5020264;28;20028;-80
2022/01/01 10:18:31;;;;;;;1999.90;636.17;;;;;;;;;;5023032;28;20025;-80
2022/01/01 10:20:57;;;;;;;1999.90;770.45;;;;;;;;;;5022164;28;20537;-80
2022/01/01 10:23:27;;;;;;;1999.90;434.95;;;;;;;;;;5035627;28;20021;-81
2022/01/01 10:28:36;;;;;;;1999.90;999.90;;;;;;;;;;5054795;28;20032;-79
2022/01/01 10:31:04;;;;;;;1859.93;643.65;;;;;;;;;;5041900;28;20080;-79
2022/01/01 10:33:29;;;;;;;1999.90;516.78;;;;;;;;;;5003988;28;20029;-79
2022/01/01 10:35:56;;;;;;;1999.90;583.05;;;;;;;;;;5038870;28;20078;-80
2022/01/01 10:38:26;;;;;;;1818.65;630.55;;;;;;;;;;5022500;28;20032;-80
2022/01/01 10:41:10;;;;;;;1999.90;479.00;;;;;;;;;;5022036;28;20124;-80
2022/01/01 10:43:39;;;;;;;1862.30;226.30;;;;;;;;;;5022048;28;20069;-82
2022/01/01 10:46:05;;;;;;;1925.78;393.83;;;;;;;;;;5037691;28;20050;-88
2022/01/01 10:51:02;;;;;;;1980.97;387.67;;;;;;;;;;5037575;28;20033;-89
2022/01/01 10:53:28;;;;;;;1578.70;572.75;;;;;;;;;;5028242;28;20044;-89
2022/01/01 10:55:55;;;;;;;1285.82;209.63;;;;;;;;;;5020809;28;20387;-86
2022/01/01 10:58:23;;;;;;;1999.90;999.90;;;;;;;;;;5019944;28;20044;-87
2022/01/01 11:00:49;;;;;;;1999.90;596.33;;;;;;;;;;5019869;28;20037;-87
2022/01/01 11:03:16;;;;;;;1999.90;999.90;;;;;;;;;;5022271;28;20029;-88
2022/01/01 11:05:42;;;;;;;1893.55;239.45;;;;;;;;;;5020152;28;20036;-86
2022/01/01 11:08:08;;;;;;;1687.03;280.15;;;;;;;;;;5020517;28;20422;-86
2022/01/01 11:10:34;;;;;;;1819.60;261.00;;;;;;;;;;5021816;28;20122;-87
2022/01/01 11:13:00;;;;;;;1999.90;415.27;;;;;;;;;;5022388;28;20048;-86
2022/01/01 11:15:26;;;;;;;1999.90;999.90;;;;;;;;;;5038767;28;20025;-86
2022/01/01 11:17:52;;;;;;;1787.65;225.93;;;;;;;;;;5021549;28;20394;-86
2022/01/01 11:20:18;;;;;;;1999.90;327.05;;;;;;;;;;5021647;28;20063;-87
2022/01/01 11:22:44;;;;;;;1999.90;999.90;;;;;;;;;;5038731;28;20044;-87
2022/01/01 11:25:10;;;;;;;1798.13;788.20;;;;;;;;;;5022157;28;20029;-86
2022/01/01 11:27:36;;;;;;;1849.93;248.77;;;;;;;;;;5012008;28;20067;-86
2022/01/01 11:30:06;;;;;;;1779.22;600.05;;;;;;;;;;5018755;28;20063;-86
2022/01/01 11:33:06;;;;;;;1999.90;999.90;;;;;;;;;;5034120;28;20036;-86
2022/01/01 11:35:38;;;;;;;1999.90;999.90;;;;;;;;;;5056008;28;20303;-87
2022/01/01 11:38:08;;;;;;;1639.88;266.75;;;;;;;;;;5022065;28;20061;-86
2022/01/01 11:40:56;;;;;;;1999.90;430.30;;;;;;;;;;5038286;28;20028;-87
2022/01/01 11:43:41;;;;;;;1891.00;615.70;;;;;;;;;;5039599;28;20039;-86
2022/01/01 11:46:11;;;;;;;1641.70;214.23;;;;;;;;;;5037996;28;20081;-86
2022/01/01 11:48:41;;;;;;;1999.90;496.02;;;;;;;;;;5021608;28;20117;-87
2022/01/01 11:51:32;;;;;;;1999.90;999.90;;;;;;;;;;5035783;28;20032;-86
2022/01/01 11:54:31;;;;;;;1812.43;616.63;;;;;;;;;;5014846;28;20025;-87
2022/01/01 11:57:01;;;;;;;1348.40;199.70;;;;;;;;;;5017865;28;20033;-86
2022/01/01 11:59:36;;;;;;;1532.40;548.47;;;;;;;;;;5017859;28;20032;-86
2022/01/01 12:02:04;;;;;;;1970.45;807.30;;;;;;;;;;5018641;28;20072;-85
2022/01/01 12:04:33;;;;;;;1806.10;777.80;;;;;;;;;;5001935;28;20029;-86
2022/01/01 12:07:17;;;;;;;1614.93;558.28;;;;;;;;;;5017947;28;20033;-86
2022/01/01 12:09:55;;;;;;;1999.90;336.73;;;;;;;;;;5034134;28;20376;-86
2022/01/01 12:12:36;;;;;;;1999.90;999.90;;;;;;;;;;5034234;28;20037;-86
2022/01/01 12:15:02;;;;;;;1780.82;596.15;;;;;;;;;;5034162;28;20029;-86
2022/01/01 12:17:27;;;;;;;1491.57;334.42;;;;;;;;;;5001084;28;20040;-86
2022/01/01 12:19:56;;;;;;;1985.30;618.85;;;;;;;;;;5017278;28;20033;-86
2022/01/01 12:22:25;;;;;;;1719.35;194.07;;;;;;;;;;5017758;28;20073;-87
2022/01/01 12:24:52;;;;;;;1999.90;999.90;;;;;;;;;;5001619;28;20364;-86
2022/01/01 12:27:17;;;;;;;1474.20;159.10;;;;;;;;;;5028006;28;20044;-86
2022/01/01 12:29:43;;;;;;;1868.18;688.00;;;;;;;;;;5033932;28;20124;-86
2022/01/01 12:32:08;;;;;;;1719.07;402.60;;;;;;;;;;5016876;28;20036;-87
2022/01/01 12:34:36;;;;;;;1999.90;999.90;;;;;;;;;;5001316;28;20043;-86
2022/01/01 12:37:04;;;;;;;1999.90;301.08;;;;;;;;;;5017869;28;20040;-86
2022/01/01 12:39:29;;;;;;;1759.13;623.95;;;;;;;;;;5001297;28;20033;-86
2022/01/01 12:41:56;;;;;;;1658.75;564.95;;;;;;;;;;5001154;28;20501;-86
2022/01/01 12:44:23;;;;;;;1999.90;346.23;;;;;;;;;;5008978;28;20079;-86
2022/01/01 12:46:53;;;;;;;1875.05;800.83;;;;;;;;;;5033927;28;20121;-86
2022/01/01 12:49:18;;;;;;;1999.90;999.90;;;;;;;;;;5005324;28;20028;-87
2022/01/01 12:51:44;;;;;;;1744.40;246.55;;;;;;;;;;5004193;28;20045;-86
2022/01/01 12:54:14;;;;;;;1999.90;368.23;;;;;;;;;;5021364;28;20028;-86
2022/01/01 12:56:41;;;;;;;1820.63;411.55;;;;;;;;;;5005162;28;20462;-86
2022/01/01 12:59:09;;;;;;;1999.90;449.73;;;;;;;;;;5005061;28;20029;-86
2022/01/01 13:01:39;;;;;;;1512.53;596.15;;;;;;;;;;5004482;28;20029;-86
2022/01/01 13:04:12;;;;;;;1999.90;346.13;;;;;;;;;;5005248;28;20021;-86
2022/01/01 13:06:40;;;;;;;1999.90;999.90;;;;;;;;;;5005353;28;20060;-85
2022/01/01 13:09:16;;;;;;;1869.80;793.83;;;;;;;;;;5004838;28;20036;-85
2022/01/01 13:11:43;;;;;;;1999.90;999.90;;;;;;;;;;5005866;28;20144;-86
2022/01/01 13:14:09;;;;;;;1620.72;264.05;;;;;;;;;;5004713;28;20120;-86
2022/01/01 13:16:35;;;;;;;1999.90;999.90;;;;;;;;;;5003944;28;20033;-86
2022/01/01 13:19:01;;;;;;;1999.90;999.90;;;;;;;;;;5004720;28;20033;-86
2022/01/01 13:21:26;;;;;;;1999.90;999.90;;;;;;;;;;5004244;28;20065;-86
2022/01/01 13:23:52;;;;;;;1899.82;262.30;;;;;;;;;;5020518;28;20056;-85
2022/01/01 13:26:18;;;;;;;1999.90;999.90;;;;;;;;;;5039354;28;20021;-86
2022/01/01 13:28:43;;;;;;;1988.30;817.47;;;;;;;;;;5036462;28;20029;-86
2022/01/01 13:31:09;;;;;;;1682.00;763.55;;;;;;;;;;5019716;28;20441;-86
2022/01/01 13:33:38;;;;;;;1947.60;817.20;;;;;;;;;;5007112;28;20032;-86
2022/01/01 13:36:04;;;;;;;1999.90;999.90;;;;;;;;;;5024351;28;20112;-86
2022/01/01 13:38:29;;;;;;;1999.90;999.90;;;;;;;;;;5012539;28;20112;-86
2022/01/01 13:40:56;;;;;;;1999.90;999.90;;;;;;;;;;5020369;28;20028;-86
2022/01/01 13:43:35;;;;;;;1999.90;999.90;;;;;;;;;;5020459;28;20102;-86
2022/01/01 13:46:05;;;;;;;1525.32;364.92;;;;;;;;;;5019945;28;20044;-86
2022/01/01 13:48:43;;;;;;;1973.57;333.05;;;;;;;;;;5004272;28;20021;-86
2022/01/01 13:51:09;;;;;;;1714.10;581.13;;;;;;;;;;5004352;28;20033;-86